Time;durP1;ratioP1;P1;durP2;ratioP2;P2;SDS_P1;SDS_P2;PMS_P1;PMS_P2;Temp;Humidity;BMP_temperature;BMP_pressure;BME280_temperature;BME280_humidity;BME280_pressure;Samples;Min_cycle;Max_cycle;Signal;HPM_P1;HPM_P2
2023/02/21 06:12:20;;;;;;;7.35;5.40;;;;;;;;;;5083513;28;20038;-45
2023/02/21 06:14:46;;;;;;;6.72;4.95;;;;;;;;;;5089103;28;20119;-44
2023/02/21 06:17:13;;;;;;;7.10;4.53;;;;;;;;;;5090202;28;20475;-47
2023/02/21 06:19:39;;;;;;;7.18;4.78;;;;;;;;;;5090330;28;20529;-45
2023/02/21 06:22:05;;;;;;;7.82;4.70;;;;;;;;;;5089759;28;20028;-46
2023/02/21 06:24:31;;;;;;;6.22;4.00;;;;;;;;;;5090082;28;20489;-46
2023/02/21 06:26:57;;;;;;;5.43;4.40;;;;;;;;;;5089554;28;20064;-45
2023/02/21 06:29:23;;;;;;;5.97;4.40;;;;;;;;;;5089442;28;20070;-46
2023/02/21 06:31:49;;;;;;;5.07;3.78;;;;;;;;;;5089955;28;20027;-45
2023/02/21 06:34:15;;;;;;;5.57;3.95;;;;;;;;;;5089726;28;20027;-45
2023/02/21 06:36:42;;;;;;;6.43;4.25;;;;;;;;;;5090251;28;20027;-46
2023/02/21 06:39:10;;;;;;;6.55;4.30;;;;;;;;;;5089814;28;20024;-46
2023/02/21 06:41:36;;;;;;;6.65;4.43;;;;;;;;;;5089397;28;20094;-45
2023/02/21 06:44:02;;;;;;;6.07;4.43;;;;;;;;;;5089537;28;20564;-46
2023/02/21 06:46:29;;;;;;;6.45;4.72;;;;;;;;;;5089367;28;20039;-46
2023/02/21 06:48:55;;;;;;;6.80;4.30;;;;;;;;;;5089246;28;20024;-46
2023/02/21 06:51:27;;;;;;;5.82;4.43;;;;;;;;;;5089041;28;20028;-45
2023/02/21 06:53:53;;;;;;;6.18;4.25;;;;;;;;;;5088790;28;20024;-45
2023/02/21 06:56:19;;;;;;;6.45;4.82;;;;;;;;;;5089158;28;20027;-46
2023/02/21 06:58:45;;;;;;;7.28;4.68;;;;;;;;;;5089042;28;20499;-45
2023/02/21 07:01:11;;;;;;;5.65;4.00;;;;;;;;;;5089015;28;20024;-45
2023/02/21 07:03:43;;;;;;;7.35;5.00;;;;;;;;;;5089615;28;20632;-44
2023/02/21 07:06:09;;;;;;;7.43;5.30;;;;;;;;;;5089294;28;20028;-43
2023/02/21 07:08:35;;;;;;;7.82;5.30;;;;;;;;;;5089154;28;20248;-46
2023/02/21 07:11:01;;;;;;;6.93;4.93;;;;;;;;;;5088854;28;20085;-47
2023/02/21 07:13:27;;;;;;;6.78;5.32;;;;;;;;;;5088176;28;20384;-45
2023/02/21 07:15:53;;;;;;;8.27;5.15;;;;;;;;;;5087967;28;20039;-45
2023/02/21 07:18:19;;;;;;;7.35;5.63;;;;;;;;;;5090096;28;20543;-47
2023/02/21 07:20:45;;;;;;;7.93;5.25;;;;;;;;;;5090741;28;20066;-46
2023/02/21 07:23:11;;;;;;;8.95;5.47;;;;;;;;;;5100941;28;20024;-44
2023/02/21 07:25:37;;;;;;;8.77;6.03;;;;;;;;;;5089796;28;20488;-45
2023/02/21 07:28:03;;;;;;;9.30;5.88;;;;;;;;;;5089672;28;20103;-45
2023/02/21 07:30:30;;;;;;;8.75;6.35;;;;;;;;;;5089809;28;20036;-44
2023/02/21 07:32:57;;;;;;;9.27;6.07;;;;;;;;;;5089626;28;20020;-46
2023/02/21 07:35:23;;;;;;;11.20;6.47;;;;;;;;;;5089951;28;20107;-45
2023/02/21 07:37:50;;;;;;;10.60;7.22;;;;;;;;;;5089717;28;20031;-45
2023/02/21 07:40:16;;;;;;;11.52;7.47;;;;;;;;;;5089888;28;20489;-45
2023/02/21 07:42:42;;;;;;;10.55;6.93;;;;;;;;;;5088911;28;20108;-44
2023/02/21 07:45:09;;;;;;;7.45;5.28;;;;;;;;;;5086874;28;20036;-45
2023/02/21 07:47:35;;;;;;;7.18;5.00;;;;;;;;;;5089189;28;20030;-45
2023/02/21 07:50:01;;;;;;;6.35;4.85;;;;;;;;;;5090585;28;20043;-46
2023/02/21 07:52:27;;;;;;;6.18;4.55;;;;;;;;;;5109705;28;20027;-45
2023/02/21 07:54:53;;;;;;;6.75;4.32;;;;;;;;;;5101269;28;20066;-45
2023/02/21 07:57:19;;;;;;;6.22;3.90;;;;;;;;;;5089051;28;20016;-44
2023/02/21 07:59:46;;;;;;;5.80;3.72;;;;;;;;;;5089219;28;20182;-45
2023/02/21 08:02:12;;;;;;;7.78;4.22;;;;;;;;;;5088915;28;20024;-44
2023/02/21 08:04:39;;;;;;;7.13;4.88;;;;;;;;;;5089223;28;20135;-44
2023/02/21 08:07:05;;;;;;;6.28;4.35;;;;;;;;;;5091210;28;20043;-45
2023/02/21 08:09:32;;;;;;;6.10;4.63;;;;;;;;;;5109518;28;20150;-45
2023/02/21 08:11:58;;;;;;;7.70;5.00;;;;;;;;;;5109384;28;20034;-46
2023/02/21 08:14:24;;;;;;;6.75;4.82;;;;;;;;;;5109421;28;20371;-46
2023/02/21 08:16:50;;;;;;;5.72;3.70;;;;;;;;;;5109687;28;20059;-45
2023/02/21 08:19:17;;;;;;;5.55;3.80;;;;;;;;;;5109529;28;20027;-46
2023/02/21 08:21:47;;;;;;;4.78;3.67;;;;;;;;;;5092272;28;20035;-45
2023/02/21 08:24:13;;;;;;;6.47;3.63;;;;;;;;;;5104838;28;20036;-44
2023/02/21 08:26:40;;;;;;;4.05;3.20;;;;;;;;;;5089185;28;20032;-45
2023/02/21 08:29:07;;;;;;;5.40;3.42;;;;;;;;;;5088842;28;20032;-46
2023/02/21 08:31:36;;;;;;;5.78;3.65;;;;;;;;;;5088975;28;20031;-45
2023/02/21 08:34:02;;;;;;;6.45;3.63;;;;;;;;;;5088961;28;20028;-45
2023/02/21 08:36:33;;;;;;;7.03;4.60;;;;;;;;;;5088681;28;20102;-47
2023/02/21 08:38:59;;;;;;;6.72;5.32;;;;;;;;;;5088889;28;20113;-47
2023/02/21 08:41:25;;;;;;;6.45;4.75;;;;;;;;;;5088512;28;20142;-45
2023/02/21 08:43:51;;;;;;;6.78;4.85;;;;;;;;;;5084512;28;20536;-46
2023/02/21 08:46:17;;;;;;;7.13;4.47;;;;;;;;;;5089356;28;20041;-45
2023/02/21 08:48:44;;;;;;;7.25;5.05;;;;;;;;;;5088543;28;20043;-46
2023/02/21 08:51:10;;;;;;;7.88;4.90;;;;;;;;;;5089745;28;20031;-45
2023/02/21 08:53:36;;;;;;;5.20;4.20;;;;;;;;;;5084390;28;20044;-46
2023/02/21 08:56:02;;;;;;;6.68;4.53;;;;;;;;;;5086822;28;20032;-45
2023/02/21 08:58:27;;;;;;;6.38;4.30;;;;;;;;;;5101948;28;20028;-46
2023/02/21 09:00:53;;;;;;;6.18;4.70;;;;;;;;;;5088318;28;20027;-45
2023/02/21 09:03:19;;;;;;;6.63;4.88;;;;;;;;;;5088267;28;20036;-48
2023/02/21 09:05:45;;;;;;;7.28;5.03;;;;;;;;;;5087921;28;20115;-45
2023/02/21 09:08:12;;;;;;;8.45;5.07;;;;;;;;;;5086532;28;20026;-45
2023/02/21 09:10:43;;;;;;;8.35;5.60;;;;;;;;;;5088448;28;20112;-45
2023/02/21 09:13:09;;;;;;;5.53;3.88;;;;;;;;;;5088556;28;20031;-48
2023/02/21 09:15:35;;;;;;;4.90;3.47;;;;;;;;;;5088256;28;20491;-45
2023/02/21 09:18:02;;;;;;;7.32;4.65;;;;;;;;;;5091299;28;20099;-44
2023/02/21 09:20:28;;;;;;;6.68;4.65;;;;;;;;;;5092259;28;20448;-44
2023/02/21 09:22:54;;;;;;;7.18;4.60;;;;;;;;;;5092041;28;20416;-43
2023/02/21 09:25:23;;;;;;;6.65;3.97;;;;;;;;;;5092268;28;20044;-43
2023/02/21 09:27:51;;;;;;;5.55;3.70;;;;;;;;;;5092260;28;20062;-44
2023/02/21 09:30:20;;;;;;;6.70;4.85;;;;;;;;;;5092237;28;20107;-43
2023/02/21 09:32:46;;;;;;;5.13;3.83;;;;;;;;;;5092044;28;20395;-43
2023/02/21 09:35:13;;;;;;;7.43;5.22;;;;;;;;;;5092286;28;20031;-42
2023/02/21 09:37:40;;;;;;;6.38;4.80;;;;;;;;;;5091866;28;20422;-44
2023/02/21 09:40:21;;;;;;;7.57;5.05;;;;;;;;;;5090451;28;20035;-42
2023/02/21 09:42:49;;;;;;;7.50;5.47;;;;;;;;;;5087943;28;20114;-43
2023/02/21 09:45:18;;;;;;;9.25;5.38;;;;;;;;;;5091793;28;20085;-43
2023/02/21 09:47:44;;;;;;;8.50;5.15;;;;;;;;;;5094712;28;20104;-45
2023/02/21 09:50:14;;;;;;;7.18;4.57;;;;;;;;;;5093677;28;20031;-45
2023/02/21 09:52:41;;;;;;;6.15;4.30;;;;;;;;;;5091746;28;20309;-44
2023/02/21 09:55:27;;;;;;;9.75;6.50;;;;;;;;;;5079140;28;20032;-43
2023/02/21 09:57:53;;;;;;;9.73;6.53;;;;;;;;;;5071017;28;20025;-44
2023/02/21 10:00:25;;;;;;;13.93;7.72;;;;;;;;;;5086608;28;20054;-43
2023/02/21 10:03:17;;;;;;;9.07;5.60;;;;;;;;;;5090388;28;20028;-45
2023/02/21 10:05:53;;;;;;;10.05;6.63;;;;;;;;;;5057528;28;20384;-44
2023/02/21 10:08:29;;;;;;;11.32;7.47;;;;;;;;;;5093055;28;20027;-43
2023/02/21 10:11:01;;;;;;;11.65;7.18;;;;;;;;;;5092322;28;20023;-43
2023/02/21 10:13:31;;;;;;;10.07;7.43;;;;;;;;;;5090918;28;20120;-42
2023/02/21 10:16:04;;;;;;;10.70;7.50;;;;;;;;;;5091104;28;20020;-43
2023/02/21 10:18:32;;;;;;;12.00;7.10;;;;;;;;;;5091133;28;20035;-42
2023/02/21 10:21:04;;;;;;;8.35;6.28;;;;;;;;;;5090937;28;20035;-43
2023/02/21 10:23:33;;;;;;;10.68;6.28;;;;;;;;;;5090773;28;20066;-44
2023/02/21 10:26:08;;;;;;;8.48;5.43;;;;;;;;;;5088560;28;20059;-43
2023/02/21 10:28:34;;;;;;;6.32;4.88;;;;;;;;;;5089531;28;20402;-43
2023/02/21 10:31:02;;;;;;;6.90;4.97;;;;;;;;;;5089959;28;20043;-43
2023/02/21 10:33:29;;;;;;;6.88;4.88;;;;;;;;;;5087796;28;20035;-43
2023/02/21 10:35:55;;;;;;;9.25;4.75;;;;;;;;;;5072576;28;20027;-43
2023/02/21 10:38:25;;;;;;;10.23;7.30;;;;;;;;;;5085592;28;20059;-43
2023/02/21 10:40:54;;;;;;;10.20;7.30;;;;;;;;;;5081532;28;20047;-44
2023/02/21 10:43:27;;;;;;;8.10;5.75;;;;;;;;;;5087989;28;20590;-42
2023/02/21 10:45:56;;;;;;;8.00;5.43;;;;;;;;;;5080803;28;20035;-44
2023/02/21 10:48:24;;;;;;;8.18;5.60;;;;;;;;;;5086273;28;20036;-43
2023/02/21 10:50:52;;;;;;;10.73;7.07;;;;;;;;;;5086728;28;20059;-44
2023/02/21 10:53:38;;;;;;;7.60;5.68;;;;;;;;;;5090015;28;20032;-44
2023/02/21 10:56:19;;;;;;;8.40;6.45;;;;;;;;;;5089422;28;20658;-45
2023/02/21 10:58:59;;;;;;;8.60;6.55;;;;;;;;;;5090446;28;20028;-43
2023/02/21 11:01:25;;;;;;;10.45;7.00;;;;;;;;;;5088200;28;20024;-44
2023/02/21 11:04:02;;;;;;;8.88;6.63;;;;;;;;;;5087323;28;20028;-43
2023/02/21 11:06:31;;;;;;;8.05;6.22;;;;;;;;;;5090426;28;20180;-42
2023/02/21 11:08:58;;;;;;;12.45;8.05;;;;;;;;;;5089642;28;20028;-45
2023/02/21 11:11:50;;;;;;;12.73;9.05;;;;;;;;;;5088485;28;20081;-43
2023/02/21 11:14:21;;;;;;;12.95;8.82;;;;;;;;;;5084548;28;20573;-43
2023/02/21 11:17:06;;;;;;;15.25;10.25;;;;;;;;;;5090344;28;20024;-43
2023/02/21 11:19:48;;;;;;;12.52;8.98;;;;;;;;;;5084191;28;20036;-44
2023/02/21 11:22:16;;;;;;;11.93;8.38;;;;;;;;;;5089499;28;20809;-43
2023/02/21 11:24:53;;;;;;;11.52;8.07;;;;;;;;;;5089769;28;20495;-43
2023/02/21 11:27:19;;;;;;;11.88;8.05;;;;;;;;;;5089118;28;20024;-43
2023/02/21 11:29:48;;;;;;;10.88;7.53;;;;;;;;;;5089883;28;20034;-45
2023/02/21 11:32:34;;;;;;;12.55;8.27;;;;;;;;;;5089779;28;20024;-42
2023/02/21 11:35:20;;;;;;;11.45;8.15;;;;;;;;;;5090717;28;20784;-44
2023/02/21 11:37:48;;;;;;;12.95;8.63;;;;;;;;;;5089686;28;20047;-43
2023/02/21 11:40:24;;;;;;;12.88;8.73;;;;;;;;;;5089175;28;20024;-43
2023/02/21 11:42:50;;;;;;;12.40;8.05;;;;;;;;;;5090243;28;20046;-45
2023/02/21 11:45:20;;;;;;;10.40;7.88;;;;;;;;;;5090412;28;20561;-43
2023/02/21 11:47:59;;;;;;;12.52;8.52;;;;;;;;;;5085415;28;20021;-43
2023/02/21 11:50:26;;;;;;;10.93;8.38;;;;;;;;;;5088354;28;20410;-43
2023/02/21 11:52:52;;;;;;;10.60;7.40;;;;;;;;;;5090210;28;20434;-43
2023/02/21 11:55:20;;;;;;;10.13;7.38;;;;;;;;;;5090001;28;20024;-43
2023/02/21 11:58:12;;;;;;;8.93;6.18;;;;;;;;;;5090194;28;20043;-43
2023/02/21 12:00:38;;;;;;;8.82;6.20;;;;;;;;;;5084530;28;20406;-46
2023/02/21 12:03:08;;;;;;;13.55;8.40;;;;;;;;;;5089436;28;20399;-44
2023/02/21 12:05:44;;;;;;;10.40;6.95;;;;;;;;;;5090448;28;20412;-46
2023/02/21 12:08:18;;;;;;;10.85;7.60;;;;;;;;;;5090609;28;20032;-46
2023/02/21 12:10:51;;;;;;;9.20;6.55;;;;;;;;;;5089239;28;20024;-47
2023/02/21 12:13:17;;;;;;;7.15;5.32;;;;;;;;;;5089018;28;20511;-44
2023/02/21 12:16:03;;;;;;;7.22;4.93;;;;;;;;;;5088108;28;20028;-45
2023/02/21 12:18:38;;;;;;;10.15;5.65;;;;;;;;;;5055560;28;20117;-45
2023/02/21 12:21:10;;;;;;;7.57;5.75;;;;;;;;;;5088530;28;20027;-44
2023/02/21 12:23:40;;;;;;;6.47;5.03;;;;;;;;;;5090151;28;20035;-44
2023/02/21 12:26:07;;;;;;;8.25;5.25;;;;;;;;;;5086763;28;20036;-45
2023/02/21 12:28:43;;;;;;;5.50;4.63;;;;;;;;;;5089203;28;20032;-44
2023/02/21 12:31:21;;;;;;;6.25;4.65;;;;;;;;;;5093582;28;20035;-44
2023/02/21 12:34:08;;;;;;;7.32;5.53;;;;;;;;;;5091972;28;20024;-46
2023/02/21 12:36:40;;;;;;;8.50;6.40;;;;;;;;;;5040282;28;20499;-47
2023/02/21 12:39:22;;;;;;;7.90;5.90;;;;;;;;;;5082609;28;20618;-46
2023/02/21 12:41:48;;;;;;;7.65;5.40;;;;;;;;;;5089248;28;20024;-44
2023/02/21 12:44:19;;;;;;;8.05;5.28;;;;;;;;;;5089775;28;20024;-45
2023/02/21 12:46:51;;;;;;;5.53;4.35;;;;;;;;;;5070734;28;20618;-45
2023/02/21 12:49:20;;;;;;;6.25;4.68;;;;;;;;;;5088178;28;20032;-45
2023/02/21 12:52:09;;;;;;;6.20;4.63;;;;;;;;;;5080590;28;20499;-46
2023/02/21 12:54:42;;;;;;;5.70;3.88;;;;;;;;;;5088172;28;20028;-44
2023/02/21 12:57:10;;;;;;;7.13;4.07;;;;;;;;;;5088276;28;20506;-46
2023/02/21 12:59:36;;;;;;;7.35;4.82;;;;;;;;;;5088520;28;20024;-44
2023/02/21 13:02:08;;;;;;;6.55;5.00;;;;;;;;;;5088907;28;20032;-44
2023/02/21 13:04:42;;;;;;;8.38;4.53;;;;;;;;;;5088699;28;20059;-46
2023/02/21 13:07:20;;;;;;;7.38;5.28;;;;;;;;;;5086524;28;20486;-46
2023/02/21 13:09:52;;;;;;;4.90;3.72;;;;;;;;;;5085928;28;20035;-45
2023/02/21 13:12:26;;;;;;;5.82;4.60;;;;;;;;;;5086894;28;20051;-46
2023/02/21 13:14:57;;;;;;;6.80;4.75;;;;;;;;;;5086597;28;20498;-44
2023/02/21 13:17:23;;;;;;;5.40;4.18;;;;;;;;;;5087189;28;20031;-45
2023/02/21 13:19:54;;;;;;;5.03;3.75;;;;;;;;;;5086398;28;20024;-45
2023/02/21 13:25:11;;;;;;;7.15;4.72;;;;;;;;;;5086869;28;20096;-46
2023/02/21 13:27:53;;;;;;;4.97;3.90;;;;;;;;;;5086961;28;20036;-47
2023/02/21 13:30:28;;;;;;;6.93;4.55;;;;;;;;;;5100705;28;20531;-46
2023/02/21 13:32:56;;;;;;;8.10;4.30;;;;;;;;;;5078898;28;20498;-46
2023/02/21 13:35:41;;;;;;;5.40;3.53;;;;;;;;;;5095484;28;20081;-45
2023/02/21 13:38:10;;;;;;;4.45;3.67;;;;;;;;;;5086081;28;20029;-47
2023/02/21 13:40:38;;;;;;;5.95;4.10;;;;;;;;;;5087304;28;20056;-46
2023/02/21 13:43:15;;;;;;;4.57;3.30;;;;;;;;;;5087973;28;20491;-47
2023/02/21 13:45:42;;;;;;;5.15;3.88;;;;;;;;;;5084982;28;20529;-46
2023/02/21 13:48:08;;;;;;;5.03;4.13;;;;;;;;;;5086178;28;20039;-45
2023/02/21 13:50:37;;;;;;;5.10;3.60;;;;;;;;;;5084268;28;20024;-46
2023/02/21 13:53:11;;;;;;;5.38;3.97;;;;;;;;;;5084995;28;20035;-47
2023/02/21 13:55:38;;;;;;;4.50;3.42;;;;;;;;;;5065569;28;20497;-45
2023/02/21 13:58:06;;;;;;;4.75;3.85;;;;;;;;;;5085935;28;20028;-46
2023/02/21 14:00:32;;;;;;;5.78;4.00;;;;;;;;;;5084140;28;20028;-47
2023/02/21 14:03:02;;;;;;;4.15;3.38;;;;;;;;;;5087391;28;20073;-47
2023/02/21 14:05:49;;;;;;;6.45;4.90;;;;;;;;;;5088464;28;20027;-47
2023/02/21 14:08:29;;;;;;;6.35;4.65;;;;;;;;;;5031509;28;20476;-48
2023/02/21 14:10:57;;;;;;;6.78;4.63;;;;;;;;;;5074740;28;20025;-48
2023/02/21 14:13:29;;;;;;;6.28;4.55;;;;;;;;;;5065434;28;20062;-47
2023/02/21 14:16:00;;;;;;;4.60;3.65;;;;;;;;;;5083356;28;20020;-46
2023/02/21 14:18:30;;;;;;;5.25;4.00;;;;;;;;;;5088039;28;20021;-47
2023/02/21 14:20:57;;;;;;;4.65;3.45;;;;;;;;;;5087719;28;20027;-47
2023/02/21 14:23:44;;;;;;;3.97;3.40;;;;;;;;;;5069321;28;20652;-48
2023/02/21 14:26:30;;;;;;;4.03;3.38;;;;;;;;;;5085683;28;20046;-46
2023/02/21 14:28:56;;;;;;;4.82;3.95;;;;;;;;;;5091008;28;20828;-47
2023/02/21 14:31:41;;;;;;;5.72;3.53;;;;;;;;;;5087359;28;20107;-46
2023/02/21 14:34:08;;;;;;;5.32;3.80;;;;;;;;;;5069522;28;20036;-47
2023/02/21 14:36:35;;;;;;;4.35;3.30;;;;;;;;;;5083720;28;20024;-49
2023/02/21 14:39:01;;;;;;;5.05;3.22;;;;;;;;;;5086742;28;20399;-46
2023/02/21 14:41:42;;;;;;;3.67;3.15;;;;;;;;;;5086023;28;20125;-47
2023/02/21 14:44:23;;;;;;;5.30;3.50;;;;;;;;;;5085221;28;20020;-46
2023/02/21 14:47:10;;;;;;;5.35;3.92;;;;;;;;;;5086007;28;20054;-47
2023/02/21 14:49:48;;;;;;;4.95;3.58;;;;;;;;;;5084999;28;20051;-46
2023/02/21 14:52:23;;;;;;;5.35;3.58;;;;;;;;;;5067785;28;20093;-47
2023/02/21 14:55:08;;;;;;;4.90;3.70;;;;;;;;;;5077325;28;20031;-49
2023/02/21 14:57:34;;;;;;;4.72;3.38;;;;;;;;;;5068610;28;20024;-46
2023/02/21 15:00:00;;;;;;;5.88;3.63;;;;;;;;;;5082295;28;20140;-46
2023/02/21 15:02:37;;;;;;;3.97;3.08;;;;;;;;;;5087418;28;20480;-48
2023/02/21 15:05:04;;;;;;;2.95;2.45;;;;;;;;;;5065261;28;20035;-46
2023/02/21 15:07:33;;;;;;;4.43;3.28;;;;;;;;;;5086050;28;20031;-47
2023/02/21 15:10:05;;;;;;;4.95;3.53;;;;;;;;;;5083114;28;20414;-46
2023/02/21 15:12:34;;;;;;;4.65;2.88;;;;;;;;;;5085905;28;20027;-50
2023/02/21 15:15:01;;;;;;;4.57;2.97;;;;;;;;;;5083709;28;20512;-47
2023/02/21 15:17:27;;;;;;;3.72;2.83;;;;;;;;;;5087080;28;20032;-47
2023/02/21 15:20:11;;;;;;;4.45;3.13;;;;;;;;;;5084272;28;20112;-50
2023/02/21 15:22:37;;;;;;;6.70;3.30;;;;;;;;;;5086287;28;20107;-47
2023/02/21 15:25:09;;;;;;;4.70;3.00;;;;;;;;;;5083888;28;20565;-48
2023/02/21 15:27:39;;;;;;;4.75;3.40;;;;;;;;;;5086167;28;20032;-47
2023/02/21 15:30:07;;;;;;;4.65;3.35;;;;;;;;;;5083511;28;20104;-46
2023/02/21 15:32:36;;;;;;;3.80;3.13;;;;;;;;;;5086279;28;20020;-46
2023/02/21 15:35:04;;;;;;;2.85;2.55;;;;;;;;;;5083530;28;20044;-48
2023/02/21 15:37:31;;;;;;;3.80;3.13;;;;;;;;;;5086031;28;20403;-47
2023/02/21 15:40:04;;;;;;;3.85;2.97;;;;;;;;;;5084516;28;20084;-48
2023/02/21 15:42:32;;;;;;;3.78;3.17;;;;;;;;;;5065776;28;20028;-48
2023/02/21 15:45:00;;;;;;;3.45;2.83;;;;;;;;;;5080951;28;20069;-46
2023/02/21 15:47:26;;;;;;;3.10;2.40;;;;;;;;;;5085959;28;20035;-48
2023/02/21 15:50:00;;;;;;;4.32;3.10;;;;;;;;;;5084281;28;20051;-46
2023/02/21 15:52:26;;;;;;;4.32;2.90;;;;;;;;;;5082893;28;20580;-48
2023/02/21 15:55:12;;;;;;;3.22;2.72;;;;;;;;;;5083020;28;20019;-47
2023/02/21 15:57:38;;;;;;;2.65;2.10;;;;;;;;;;5066851;28;20127;-47
2023/02/21 16:00:23;;;;;;;3.33;2.35;;;;;;;;;;5083247;28;20107;-47
2023/02/21 16:02:49;;;;;;;3.42;2.40;;;;;;;;;;5067234;28;20024;-46
2023/02/21 16:05:25;;;;;;;2.80;2.50;;;;;;;;;;5086343;28;20403;-47
2023/02/21 16:07:54;;;;;;;3.70;2.70;;;;;;;;;;5083885;28;20027;-46
2023/02/21 16:10:22;;;;;;;5.82;3.80;;;;;;;;;;5086996;28;20105;-44
2023/02/21 16:12:54;;;;;;;4.63;3.53;;;;;;;;;;5078949;28;20071;-45
2023/02/21 16:15:31;;;;;;;4.22;3.20;;;;;;;;;;5076776;28;20031;-45
2023/02/21 16:18:02;;;;;;;3.72;2.80;;;;;;;;;;5084770;28;20032;-45
2023/02/21 16:20:38;;;;;;;3.45;2.67;;;;;;;;;;5086354;28;20050;-44
2023/02/21 16:23:19;;;;;;;3.03;2.60;;;;;;;;;;5085731;28;20403;-44
2023/02/21 16:26:01;;;;;;;3.20;2.60;;;;;;;;;;5080759;28;20039;-44
2023/02/21 16:28:28;;;;;;;2.95;2.40;;;;;;;;;;5065577;28;20024;-44
2023/02/21 16:30:57;;;;;;;2.92;2.60;;;;;;;;;;5065333;28;20062;-43
2023/02/21 16:33:24;;;;;;;2.55;2.35;;;;;;;;;;5075882;28;20009;-44
2023/02/21 16:35:51;;;;;;;3.40;2.63;;;;;;;;;;5067386;28;20511;-45
2023/02/21 16:38:18;;;;;;;3.42;2.60;;;;;;;;;;5085673;28;20028;-45
2023/02/21 16:40:45;;;;;;;2.50;2.20;;;;;;;;;;5085298;28;20035;-47
2023/02/21 16:43:37;;;;;;;2.75;2.30;;;;;;;;;;5085401;28;20020;-44
2023/02/21 16:46:03;;;;;;;3.45;2.55;;;;;;;;;;5081922;28;20039;-47
2023/02/21 16:48:31;;;;;;;3.55;2.60;;;;;;;;;;5085128;28;20032;-46
2023/02/21 16:50:58;;;;;;;2.95;2.60;;;;;;;;;;5085228;28;20509;-48
2023/02/21 16:53:25;;;;;;;2.90;2.20;;;;;;;;;;5085916;28;20395;-46
2023/02/21 16:55:51;;;;;;;3.38;2.42;;;;;;;;;;5085619;28;20055;-46
2023/02/21 16:58:29;;;;;;;3.83;2.60;;;;;;;;;;5086241;28;20049;-48
2023/02/21 17:01:00;;;;;;;4.82;2.90;;;;;;;;;;5085727;28;20032;-46
2023/02/21 17:03:27;;;;;;;3.80;2.90;;;;;;;;;;5086477;28;20020;-47
2023/02/21 17:05:54;;;;;;;3.55;2.65;;;;;;;;;;5086275;28;20508;-46
2023/02/21 17:08:20;;;;;;;4.38;2.90;;;;;;;;;;5086913;28;20016;-45
2023/02/21 17:10:46;;;;;;;4.20;3.20;;;;;;;;;;5086347;28;20058;-45
2023/02/21 17:13:12;;;;;;;4.30;3.00;;;;;;;;;;5086245;28;20568;-47
2023/02/21 17:15:38;;;;;;;3.50;3.00;;;;;;;;;;5086757;28;20055;-45
2023/02/21 17:18:04;;;;;;;4.72;3.33;;;;;;;;;;5084746;28;20028;-45
2023/02/21 17:20:30;;;;;;;5.20;3.67;;;;;;;;;;5085117;28;20028;-45
2023/02/21 17:22:57;;;;;;;4.80;3.40;;;;;;;;;;5085689;28;20041;-46
2023/02/21 17:25:24;;;;;;;5.00;3.50;;;;;;;;;;5077332;28;20037;-48
2023/02/21 17:27:50;;;;;;;5.53;3.55;;;;;;;;;;5066229;28;20021;-46
2023/02/21 17:30:17;;;;;;;5.13;3.40;;;;;;;;;;5065316;28;20495;-45
2023/02/21 17:32:45;;;;;;;5.45;3.65;;;;;;;;;;5064663;28;20613;-45
2023/02/21 17:35:13;;;;;;;5.03;3.65;;;;;;;;;;5064905;28;20032;-47
2023/02/21 17:37:39;;;;;;;5.45;3.85;;;;;;;;;;5065808;28;20017;-45
2023/02/21 17:40:05;;;;;;;5.25;3.97;;;;;;;;;;5051344;28;20484;-46
2023/02/21 17:42:31;;;;;;;5.32;3.55;;;;;;;;;;5068838;28;20020;-47
2023/02/21 17:44:58;;;;;;;6.10;3.75;;;;;;;;;;5068805;28;20059;-46
2023/02/21 17:47:25;;;;;;;6.18;3.97;;;;;;;;;;5068662;28;20017;-46
2023/02/21 17:49:53;;;;;;;6.80;4.03;;;;;;;;;;5068516;28;20120;-46
2023/02/21 17:52:19;;;;;;;5.90;4.20;;;;;;;;;;5068538;28;20486;-45
2023/02/21 17:54:45;;;;;;;6.45;4.18;;;;;;;;;;5068660;28;20029;-45
2023/02/21 17:57:11;;;;;;;9.32;6.13;;;;;;;;;;5068570;28;20032;-46
2023/02/21 17:59:38;;;;;;;9.20;5.50;;;;;;;;;;5069306;28;20033;-45
2023/02/21 18:02:05;;;;;;;7.38;4.80;;;;;;;;;;5068545;28;20028;-46
2023/02/21 18:04:31;;;;;;;7.30;4.38;;;;;;;;;;5068402;28;20040;-46
2023/02/21 18:06:57;;;;;;;7.18;4.15;;;;;;;;;;5067287;28;20479;-48
2023/02/21 18:09:23;;;;;;;8.18;5.35;;;;;;;;;;5069251;28;20040;-45
2023/02/21 18:11:51;;;;;;;9.32;5.22;;;;;;;;;;5083776;28;20052;-46
2023/02/21 18:14:18;;;;;;;8.23;5.43;;;;;;;;;;5066232;28;20140;-45
2023/02/21 18:16:44;;;;;;;8.75;5.55;;;;;;;;;;5067898;28;20020;-45
2023/02/21 18:19:10;;;;;;;8.60;5.57;;;;;;;;;;5067988;28;20454;-46
2023/02/21 18:21:40;;;;;;;8.52;5.50;;;;;;;;;;5067816;28;20028;-46
2023/02/21 18:24:09;;;;;;;7.60;5.00;;;;;;;;;;5068053;28;20024;-47
2023/02/21 18:26:36;;;;;;;7.40;4.80;;;;;;;;;;5068246;28;20083;-46
2023/02/21 18:29:03;;;;;;;7.10;4.65;;;;;;;;;;5067819;28;20036;-45
2023/02/21 18:31:30;;;;;;;7.78;4.65;;;;;;;;;;5068235;28;20348;-45
2023/02/21 18:33:56;;;;;;;7.07;4.07;;;;;;;;;;5067703;28;20040;-45
2023/02/21 18:36:22;;;;;;;6.13;4.65;;;;;;;;;;5068315;28;20554;-46
2023/02/21 18:38:48;;;;;;;5.45;3.80;;;;;;;;;;5068199;28;20029;-45
2023/02/21 18:41:17;;;;;;;5.80;3.85;;;;;;;;;;5067496;28;20047;-45
2023/02/21 18:43:43;;;;;;;5.57;3.40;;;;;;;;;;5067837;28;20819;-45
2023/02/21 18:46:13;;;;;;;5.43;3.70;;;;;;;;;;5067483;28;20028;-47
2023/02/21 18:48:42;;;;;;;5.65;3.65;;;;;;;;;;5067315;28;20029;-46
2023/02/21 18:51:09;;;;;;;5.20;3.67;;;;;;;;;;5067371;28;20024;-46
2023/02/21 18:53:35;;;;;;;5.63;3.67;;;;;;;;;;5067519;28;20032;-45
2023/02/21 18:56:01;;;;;;;5.85;3.90;;;;;;;;;;5067151;28;20082;-47
2023/02/21 18:58:27;;;;;;;6.28;4.18;;;;;;;;;;5067662;28;20033;-47
2023/02/21 19:00:53;;;;;;;6.10;4.35;;;;;;;;;;5067353;28;20103;-45
2023/02/21 19:03:19;;;;;;;6.93;4.22;;;;;;;;;;5067631;28;20024;-46
2023/02/21 19:05:48;;;;;;;7.07;4.13;;;;;;;;;;5067099;28;20025;-45
2023/02/21 19:08:14;;;;;;;6.93;4.05;;;;;;;;;;5067443;28;20024;-45
2023/02/21 19:10:40;;;;;;;5.85;4.22;;;;;;;;;;5067686;28;20554;-46
2023/02/21 19:13:06;;;;;;;6.05;3.92;;;;;;;;;;5082427;28;20050;-45
2023/02/21 19:15:32;;;;;;;5.07;3.85;;;;;;;;;;5067386;28;20070;-47
2023/02/21 19:17:59;;;;;;;5.80;4.20;;;;;;;;;;5067104;28;20048;-45
2023/02/21 19:20:25;;;;;;;9.05;4.20;;;;;;;;;;5067026;28;20070;-46
2023/02/21 19:22:53;;;;;;;7.05;5.00;;;;;;;;;;5067129;28;20468;-45
2023/02/21 19:25:19;;;;;;;8.85;5.65;;;;;;;;;;5068013;28;20028;-46
2023/02/21 19:27:45;;;;;;;8.18;5.80;;;;;;;;;;5066881;28;20028;-46
2023/02/21 19:30:12;;;;;;;8.90;5.68;;;;;;;;;;5066660;28;20119;-45
2023/02/21 19:32:38;;;;;;;7.57;5.32;;;;;;;;;;5066604;28;20032;-44
2023/02/21 19:35:05;;;;;;;7.68;5.32;;;;;;;;;;5066736;28;20093;-45
2023/02/21 19:37:31;;;;;;;8.75;6.03;;;;;;;;;;5066574;28;20384;-45
2023/02/21 19:39:57;;;;;;;8.50;5.10;;;;;;;;;;5066627;28;20021;-45
2023/02/21 19:42:23;;;;;;;8.23;5.70;;;;;;;;;;5066909;28;20024;-47
2023/02/21 19:44:49;;;;;;;8.80;5.72;;;;;;;;;;5067339;28;20038;-46
2023/02/21 19:47:15;;;;;;;6.13;4.65;;;;;;;;;;5066207;28;20465;-46
2023/02/21 19:49:44;;;;;;;10.73;6.20;;;;;;;;;;5066609;28;20113;-45
2023/02/21 19:52:11;;;;;;;7.65;5.80;;;;;;;;;;5065982;28;20021;-46
2023/02/21 19:54:37;;;;;;;6.50;5.10;;;;;;;;;;5066100;28;20029;-45
2023/02/21 19:57:03;;;;;;;7.72;5.90;;;;;;;;;;5066180;28;20017;-45
2023/02/21 19:59:29;;;;;;;9.50;6.53;;;;;;;;;;5081576;28;20569;-45
2023/02/21 20:01:56;;;;;;;8.18;5.85;;;;;;;;;;5065678;28;20523;-46
2023/02/21 20:04:23;;;;;;;8.30;5.93;;;;;;;;;;5066747;28;20024;-46
2023/02/21 20:06:49;;;;;;;8.93;5.85;;;;;;;;;;5066345;28;20058;-46
2023/02/21 20:09:16;;;;;;;11.02;6.55;;;;;;;;;;5065822;28;20021;-46
2023/02/21 20:11:43;;;;;;;13.00;8.15;;;;;;;;;;5081732;28;20036;-45
2023/02/21 20:14:10;;;;;;;12.90;7.60;;;;;;;;;;5086001;28;20077;-46
2023/02/21 20:16:37;;;;;;;12.52;8.05;;;;;;;;;;5086244;28;20038;-47
2023/02/21 20:19:03;;;;;;;14.05;8.05;;;;;;;;;;5086505;28;20020;-46
2023/02/21 20:21:30;;;;;;;10.90;7.47;;;;;;;;;;5085754;28;20028;-44
2023/02/21 20:24:00;;;;;;;13.23;7.70;;;;;;;;;;5085986;28;20024;-45
2023/02/21 20:26:26;;;;;;;12.00;7.97;;;;;;;;;;5085963;28;20515;-46
2023/02/21 20:28:54;;;;;;;11.98;7.60;;;;;;;;;;5086390;28;20032;-46
2023/02/21 20:31:22;;;;;;;11.32;7.30;;;;;;;;;;5087089;28;20170;-45
2023/02/21 20:33:49;;;;;;;10.25;6.90;;;;;;;;;;5068189;28;20077;-45
2023/02/21 20:36:17;;;;;;;9.07;6.78;;;;;;;;;;5086182;28;20031;-45
2023/02/21 20:38:43;;;;;;;8.82;6.60;;;;;;;;;;5085822;28;20182;-46
2023/02/21 20:41:12;;;;;;;8.73;6.55;;;;;;;;;;5085727;28;20038;-44
2023/02/21 20:43:39;;;;;;;14.05;8.43;;;;;;;;;;5067286;28;20039;-45
2023/02/21 20:46:06;;;;;;;11.73;7.55;;;;;;;;;;5085611;28;20028;-45
2023/02/21 20:48:32;;;;;;;10.82;7.15;;;;;;;;;;5085480;28;20040;-46
2023/02/21 20:51:05;;;;;;;9.40;6.75;;;;;;;;;;5085341;28;20024;-45
2023/02/21 20:53:32;;;;;;;9.02;6.25;;;;;;;;;;5085337;28;20024;-46
2023/02/21 20:55:58;;;;;;;12.50;7.85;;;;;;;;;;5085529;28;20440;-45
2023/02/21 20:58:25;;;;;;;10.23;6.97;;;;;;;;;;5085443;28;20110;-45
2023/02/21 21:00:52;;;;;;;9.07;6.75;;;;;;;;;;5086143;28;20016;-46
2023/02/21 21:03:18;;;;;;;10.10;6.10;;;;;;;;;;5085779;28;20125;-45
2023/02/21 21:05:49;;;;;;;9.40;6.65;;;;;;;;;;5085102;28;20050;-45
2023/02/21 21:08:15;;;;;;;9.57;6.22;;;;;;;;;;5085417;28;20070;-46